sensor_id;sensor_type;location;lat;lon;timestamp;P1;durP1;ratioP1;P2;durP2;ratioP2
40164;SDS011;25882;51.120;17.248;2023-06-04T00:02:23;6.07;;;2.80;;
40164;SDS011;25882;51.120;17.248;2023-06-04T00:04:49;6.22;;;2.63;;
40164;SDS011;25882;51.120;17.248;2023-06-04T00:07:16;5.32;;;2.22;;
40164;SDS011;25882;51.120;17.248;2023-06-04T00:09:42;5.10;;;2.53;;
40164;SDS011;25882;51.120;17.248;2023-06-04T00:12:09;7.40;;;2.38;;
40164;SDS011;25882;51.120;17.248;2023-06-04T00:14:35;5.78;;;2.30;;
40164;SDS011;25882;51.120;17.248;2023-06-04T00:17:01;8.43;;;2.60;;
40164;SDS011;25882;51.120;17.248;2023-06-04T00:19:27;5.45;;;2.42;;
40164;SDS011;25882;51.120;17.248;2023-06-04T00:21:54;5.65;;;3.17;;
40164;SDS011;25882;51.120;17.248;2023-06-04T00:24:21;5.25;;;2.42;;
40164;SDS011;25882;51.120;17.248;2023-06-04T00:26:47;5.60;;;2.80;;
40164;SDS011;25882;51.120;17.248;2023-06-04T00:29:13;6.75;;;2.88;;
40164;SDS011;25882;51.120;17.248;2023-06-04T00:31:39;6.95;;;2.22;;
40164;SDS011;25882;51.120;17.248;2023-06-04T00:34:05;21.88;;;4.43;;
40164;SDS011;25882;51.120;17.248;2023-06-04T00:36:31;5.80;;;2.75;;
40164;SDS011;25882;51.120;17.248;2023-06-04T00:38:57;8.65;;;2.50;;
40164;SDS011;25882;51.120;17.248;2023-06-04T00:41:24;6.57;;;2.75;;
40164;SDS011;25882;51.120;17.248;2023-06-04T00:43:50;7.60;;;3.05;;
40164;SDS011;25882;51.120;17.248;2023-06-04T00:46:27;15.13;;;3.10;;
40164;SDS011;25882;51.120;17.248;2023-06-04T00:48:54;20.77;;;3.60;;
40164;SDS011;25882;51.120;17.248;2023-06-04T00:51:20;8.65;;;3.03;;
40164;SDS011;25882;51.120;17.248;2023-06-04T00:53:47;5.47;;;3.50;;
40164;SDS011;25882;51.120;17.248;2023-06-04T00:56:14;5.15;;;2.30;;
40164;SDS011;25882;51.120;17.248;2023-06-04T00:58:41;5.72;;;2.70;;
40164;SDS011;25882;51.120;17.248;2023-06-04T01:01:10;4.47;;;2.53;;
40164;SDS011;25882;51.120;17.248;2023-06-04T01:03:40;6.63;;;2.60;;
40164;SDS011;25882;51.120;17.248;2023-06-04T01:06:10;5.55;;;2.42;;
40164;SDS011;25882;51.120;17.248;2023-06-04T01:08:38;8.02;;;3.78;;
40164;SDS011;25882;51.120;17.248;2023-06-04T01:11:04;5.40;;;2.83;;
40164;SDS011;25882;51.120;17.248;2023-06-04T01:13:30;8.75;;;2.70;;
40164;SDS011;25882;51.120;17.248;2023-06-04T01:15:58;9.48;;;3.22;;
40164;SDS011;25882;51.120;17.248;2023-06-04T01:18:26;10.80;;;3.03;;
40164;SDS011;25882;51.120;17.248;2023-06-04T01:20:54;13.38;;;4.05;;
40164;SDS011;25882;51.120;17.248;2023-06-04T01:23:25;8.35;;;3.22;;
40164;SDS011;25882;51.120;17.248;2023-06-04T01:25:59;7.50;;;3.08;;
40164;SDS011;25882;51.120;17.248;2023-06-04T01:28:28;6.80;;;2.85;;
40164;SDS011;25882;51.120;17.248;2023-06-04T01:30:55;5.22;;;2.80;;
40164;SDS011;25882;51.120;17.248;2023-06-04T01:33:23;6.30;;;3.33;;
40164;SDS011;25882;51.120;17.248;2023-06-04T01:35:49;5.20;;;3.25;;
40164;SDS011;25882;51.120;17.248;2023-06-04T01:38:15;9.27;;;3.35;;
40164;SDS011;25882;51.120;17.248;2023-06-04T01:40:41;7.47;;;3.03;;
40164;SDS011;25882;51.120;17.248;2023-06-04T01:43:07;7.13;;;3.53;;
40164;SDS011;25882;51.120;17.248;2023-06-04T01:45:33;6.85;;;3.40;;
40164;SDS011;25882;51.120;17.248;2023-06-04T01:48:00;6.47;;;2.90;;
40164;SDS011;25882;51.120;17.248;2023-06-04T01:50:28;8.30;;;3.00;;
40164;SDS011;25882;51.120;17.248;2023-06-04T01:52:54;10.88;;;3.45;;
40164;SDS011;25882;51.120;17.248;2023-06-04T01:55:20;10.73;;;3.92;;
40164;SDS011;25882;51.120;17.248;2023-06-04T01:57:46;8.45;;;3.08;;
40164;SDS011;25882;51.120;17.248;2023-06-04T02:03:56;6.72;;;2.85;;
40164;SDS011;25882;51.120;17.248;2023-06-04T02:06:24;6.68;;;3.10;;
40164;SDS011;25882;51.120;17.248;2023-06-04T02:08:55;7.10;;;3.08;;
40164;SDS011;25882;51.120;17.248;2023-06-04T02:14:20;5.32;;;2.92;;
40164;SDS011;25882;51.120;17.248;2023-06-04T02:16:46;8.57;;;3.20;;
40164;SDS011;25882;51.120;17.248;2023-06-04T02:19:15;6.97;;;3.17;;
40164;SDS011;25882;51.120;17.248;2023-06-04T02:21:45;9.10;;;3.45;;
40164;SDS011;25882;51.120;17.248;2023-06-04T02:24:12;5.55;;;3.05;;
40164;SDS011;25882;51.120;17.248;2023-06-04T02:26:38;7.97;;;3.40;;
40164;SDS011;25882;51.120;17.248;2023-06-04T02:29:05;7.18;;;3.58;;
40164;SDS011;25882;51.120;17.248;2023-06-04T02:31:31;7.90;;;3.25;;
40164;SDS011;25882;51.120;17.248;2023-06-04T02:33:57;7.65;;;2.95;;
40164;SDS011;25882;51.120;17.248;2023-06-04T02:36:24;7.72;;;3.30;;
40164;SDS011;25882;51.120;17.248;2023-06-04T02:38:51;6.65;;;3.40;;
40164;SDS011;25882;51.120;17.248;2023-06-04T02:41:18;9.18;;;3.38;;
40164;SDS011;25882;51.120;17.248;2023-06-04T02:43:44;9.40;;;3.08;;
40164;SDS011;25882;51.120;17.248;2023-06-04T02:46:11;6.03;;;3.13;;
40164;SDS011;25882;51.120;17.248;2023-06-04T02:48:37;6.47;;;3.30;;
40164;SDS011;25882;51.120;17.248;2023-06-04T02:51:04;8.88;;;3.65;;
40164;SDS011;25882;51.120;17.248;2023-06-04T02:53:30;4.68;;;3.17;;
40164;SDS011;25882;51.120;17.248;2023-06-04T02:55:58;6.53;;;3.50;;
40164;SDS011;25882;51.120;17.248;2023-06-04T02:58:24;12.43;;;3.80;;
40164;SDS011;25882;51.120;17.248;2023-06-04T03:00:51;8.77;;;3.30;;
40164;SDS011;25882;51.120;17.248;2023-06-04T03:03:18;5.68;;;3.28;;
40164;SDS011;25882;51.120;17.248;2023-06-04T03:05:44;7.88;;;4.00;;
40164;SDS011;25882;51.120;17.248;2023-06-04T03:08:11;6.85;;;3.78;;
40164;SDS011;25882;51.120;17.248;2023-06-04T03:10:38;10.13;;;4.53;;
40164;SDS011;25882;51.120;17.248;2023-06-04T03:13:05;11.02;;;4.10;;
40164;SDS011;25882;51.120;17.248;2023-06-04T03:15:32;17.98;;;4.60;;
40164;SDS011;25882;51.120;17.248;2023-06-04T03:17:58;14.90;;;4.78;;
40164;SDS011;25882;51.120;17.248;2023-06-04T03:20:25;11.43;;;4.80;;
40164;SDS011;25882;51.120;17.248;2023-06-04T03:22:51;11.77;;;4.78;;
40164;SDS011;25882;51.120;17.248;2023-06-04T03:25:18;10.75;;;5.07;;
40164;SDS011;25882;51.120;17.248;2023-06-04T03:27:44;10.05;;;5.32;;
40164;SDS011;25882;51.120;17.248;2023-06-04T03:30:12;12.57;;;3.95;;
40164;SDS011;25882;51.120;17.248;2023-06-04T03:32:38;9.70;;;3.85;;
40164;SDS011;25882;51.120;17.248;2023-06-04T03:35:05;10.45;;;4.30;;
40164;SDS011;25882;51.120;17.248;2023-06-04T03:37:34;7.45;;;3.50;;
40164;SDS011;25882;51.120;17.248;2023-06-04T03:40:01;9.00;;;3.13;;
40164;SDS011;25882;51.120;17.248;2023-06-04T03:42:28;12.30;;;3.80;;
40164;SDS011;25882;51.120;17.248;2023-06-04T03:44:54;16.05;;;4.20;;
40164;SDS011;25882;51.120;17.248;2023-06-04T03:47:22;9.57;;;4.28;;
40164;SDS011;25882;51.120;17.248;2023-06-04T03:49:48;15.15;;;3.90;;
40164;SDS011;25882;51.120;17.248;2023-06-04T03:52:14;30.40;;;4.38;;
40164;SDS011;25882;51.120;17.248;2023-06-04T03:54:41;7.47;;;3.63;;
40164;SDS011;25882;51.120;17.248;2023-06-04T03:57:07;7.07;;;2.97;;
40164;SDS011;25882;51.120;17.248;2023-06-04T03:59:34;17.70;;;3.00;;
40164;SDS011;25882;51.120;17.248;2023-06-04T04:02:00;12.30;;;3.25;;
40164;SDS011;25882;51.120;17.248;2023-06-04T04:04:28;5.65;;;2.80;;
40164;SDS011;25882;51.120;17.248;2023-06-04T04:06:54;4.97;;;2.60;;
40164;SDS011;25882;51.120;17.248;2023-06-04T04:09:21;8.68;;;3.28;;
40164;SDS011;25882;51.120;17.248;2023-06-04T04:11:47;8.30;;;2.97;;
40164;SDS011;25882;51.120;17.248;2023-06-04T04:14:13;15.10;;;4.22;;
40164;SDS011;25882;51.120;17.248;2023-06-04T04:16:39;9.05;;;3.72;;
40164;SDS011;25882;51.120;17.248;2023-06-04T04:19:06;5.22;;;3.42;;
40164;SDS011;25882;51.120;17.248;2023-06-04T04:21:34;6.63;;;4.18;;
40164;SDS011;25882;51.120;17.248;2023-06-04T04:24:02;10.00;;;4.95;;
40164;SDS011;25882;51.120;17.248;2023-06-04T04:26:28;8.68;;;4.00;;
40164;SDS011;25882;51.120;17.248;2023-06-04T04:28:55;6.68;;;3.75;;
40164;SDS011;25882;51.120;17.248;2023-06-04T04:31:25;7.10;;;3.03;;
40164;SDS011;25882;51.120;17.248;2023-06-04T04:33:54;16.40;;;4.50;;
40164;SDS011;25882;51.120;17.248;2023-06-04T04:36:21;11.98;;;3.97;;
40164;SDS011;25882;51.120;17.248;2023-06-04T04:38:49;8.00;;;3.17;;
40164;SDS011;25882;51.120;17.248;2023-06-04T04:41:19;7.28;;;3.75;;
40164;SDS011;25882;51.120;17.248;2023-06-04T04:43:47;8.05;;;3.30;;
40164;SDS011;25882;51.120;17.248;2023-06-04T04:46:13;7.80;;;3.25;;
40164;SDS011;25882;51.120;17.248;2023-06-04T04:48:39;7.60;;;3.58;;
40164;SDS011;25882;51.120;17.248;2023-06-04T04:51:07;5.85;;;3.00;;
40164;SDS011;25882;51.120;17.248;2023-06-04T04:53:34;4.93;;;2.78;;
40164;SDS011;25882;51.120;17.248;2023-06-04T04:56:02;5.15;;;2.40;;
40164;SDS011;25882;51.120;17.248;2023-06-04T04:58:28;5.05;;;2.70;;
40164;SDS011;25882;51.120;17.248;2023-06-04T05:00:55;8.10;;;2.95;;
40164;SDS011;25882;51.120;17.248;2023-06-04T05:03:21;4.45;;;2.58;;
40164;SDS011;25882;51.120;17.248;2023-06-04T05:05:47;5.72;;;3.05;;
40164;SDS011;25882;51.120;17.248;2023-06-04T05:08:14;4.60;;;3.13;;
40164;SDS011;25882;51.120;17.248;2023-06-04T05:10:40;6.13;;;3.15;;
40164;SDS011;25882;51.120;17.248;2023-06-04T05:13:08;7.13;;;3.00;;
40164;SDS011;25882;51.120;17.248;2023-06-04T05:15:36;7.80;;;2.85;;
40164;SDS011;25882;51.120;17.248;2023-06-04T05:18:05;8.82;;;2.60;;
40164;SDS011;25882;51.120;17.248;2023-06-04T05:20:31;7.88;;;2.53;;
40164;SDS011;25882;51.120;17.248;2023-06-04T05:22:58;4.40;;;2.60;;
40164;SDS011;25882;51.120;17.248;2023-06-04T05:25:24;4.85;;;2.60;;
40164;SDS011;25882;51.120;17.248;2023-06-04T05:27:53;4.93;;;2.72;;
40164;SDS011;25882;51.120;17.248;2023-06-04T05:30:21;5.20;;;2.55;;
40164;SDS011;25882;51.120;17.248;2023-06-04T05:32:48;3.63;;;2.15;;
40164;SDS011;25882;51.120;17.248;2023-06-04T05:35:16;4.47;;;2.33;;
40164;SDS011;25882;51.120;17.248;2023-06-04T05:37:42;7.00;;;2.95;;
40164;SDS011;25882;51.120;17.248;2023-06-04T05:40:11;3.85;;;2.10;;
40164;SDS011;25882;51.120;17.248;2023-06-04T05:42:38;5.93;;;2.58;;
40164;SDS011;25882;51.120;17.248;2023-06-04T05:45:04;4.45;;;2.55;;
40164;SDS011;25882;51.120;17.248;2023-06-04T05:47:32;5.57;;;1.98;;
40164;SDS011;25882;51.120;17.248;2023-06-04T05:49:58;6.93;;;2.92;;
40164;SDS011;25882;51.120;17.248;2023-06-04T05:52:24;4.63;;;2.38;;
40164;SDS011;25882;51.120;17.248;2023-06-04T05:54:50;5.40;;;2.55;;
40164;SDS011;25882;51.120;17.248;2023-06-04T05:57:17;7.68;;;2.25;;
40164;SDS011;25882;51.120;17.248;2023-06-04T05:59:43;10.57;;;3.25;;
40164;SDS011;25882;51.120;17.248;2023-06-04T06:02:10;4.35;;;2.15;;
40164;SDS011;25882;51.120;17.248;2023-06-04T06:04:39;3.70;;;1.80;;
40164;SDS011;25882;51.120;17.248;2023-06-04T06:07:05;5.07;;;2.05;;
40164;SDS011;25882;51.120;17.248;2023-06-04T06:09:32;8.02;;;2.38;;
40164;SDS011;25882;51.120;17.248;2023-06-04T06:11:58;5.85;;;1.92;;
40164;SDS011;25882;51.120;17.248;2023-06-04T06:14:24;4.50;;;2.03;;
40164;SDS011;25882;51.120;17.248;2023-06-04T06:16:53;4.40;;;1.90;;
40164;SDS011;25882;51.120;17.248;2023-06-04T06:19:20;5.22;;;2.03;;
40164;SDS011;25882;51.120;17.248;2023-06-04T06:21:48;3.72;;;1.90;;
40164;SDS011;25882;51.120;17.248;2023-06-04T06:24:14;2.58;;;1.77;;
40164;SDS011;25882;51.120;17.248;2023-06-04T06:26:41;4.25;;;1.90;;
40164;SDS011;25882;51.120;17.248;2023-06-04T06:29:08;4.20;;;1.77;;
40164;SDS011;25882;51.120;17.248;2023-06-04T06:31:34;6.03;;;1.90;;
40164;SDS011;25882;51.120;17.248;2023-06-04T06:34:00;5.32;;;2.00;;
40164;SDS011;25882;51.120;17.248;2023-06-04T06:36:27;3.45;;;1.77;;
40164;SDS011;25882;51.120;17.248;2023-06-04T06:38:55;6.43;;;2.22;;
40164;SDS011;25882;51.120;17.248;2023-06-04T06:41:21;5.13;;;2.17;;
40164;SDS011;25882;51.120;17.248;2023-06-04T06:43:48;6.38;;;2.00;;
40164;SDS011;25882;51.120;17.248;2023-06-04T06:46:15;6.68;;;2.75;;
40164;SDS011;25882;51.120;17.248;2023-06-04T06:48:41;20.58;;;2.55;;
40164;SDS011;25882;51.120;17.248;2023-06-04T06:51:11;6.63;;;2.25;;
40164;SDS011;25882;51.120;17.248;2023-06-04T06:53:37;2.85;;;1.77;;
40164;SDS011;25882;51.120;17.248;2023-06-04T06:56:06;7.57;;;2.20;;
40164;SDS011;25882;51.120;17.248;2023-06-04T06:58:32;11.40;;;2.92;;
40164;SDS011;25882;51.120;17.248;2023-06-04T07:00:59;5.07;;;2.28;;
40164;SDS011;25882;51.120;17.248;2023-06-04T07:03:26;4.22;;;2.15;;
40164;SDS011;25882;51.120;17.248;2023-06-04T07:05:53;4.55;;;1.83;;
40164;SDS011;25882;51.120;17.248;2023-06-04T07:08:19;3.65;;;1.65;;
40164;SDS011;25882;51.120;17.248;2023-06-04T07:10:47;4.45;;;2.47;;
40164;SDS011;25882;51.120;17.248;2023-06-04T07:13:15;7.82;;;2.00;;
40164;SDS011;25882;51.120;17.248;2023-06-04T07:15:42;3.03;;;2.10;;
40164;SDS011;25882;51.120;17.248;2023-06-04T07:18:08;3.70;;;2.47;;
40164;SDS011;25882;51.120;17.248;2023-06-04T07:20:35;4.45;;;2.38;;
40164;SDS011;25882;51.120;17.248;2023-06-04T07:23:01;3.35;;;2.22;;
40164;SDS011;25882;51.120;17.248;2023-06-04T07:25:28;4.47;;;2.03;;
40164;SDS011;25882;51.120;17.248;2023-06-04T07:27:54;2.78;;;1.80;;
40164;SDS011;25882;51.120;17.248;2023-06-04T07:30:25;3.22;;;2.15;;
40164;SDS011;25882;51.120;17.248;2023-06-04T07:32:51;7.05;;;2.20;;
40164;SDS011;25882;51.120;17.248;2023-06-04T07:35:17;3.25;;;1.63;;
40164;SDS011;25882;51.120;17.248;2023-06-04T07:37:43;6.50;;;2.63;;
40164;SDS011;25882;51.120;17.248;2023-06-04T07:40:11;3.45;;;1.92;;
40164;SDS011;25882;51.120;17.248;2023-06-04T07:42:38;4.15;;;1.63;;
40164;SDS011;25882;51.120;17.248;2023-06-04T07:45:05;2.90;;;1.80;;
40164;SDS011;25882;51.120;17.248;2023-06-04T07:47:33;5.95;;;2.78;;
40164;SDS011;25882;51.120;17.248;2023-06-04T07:50:01;4.10;;;1.95;;
40164;SDS011;25882;51.120;17.248;2023-06-04T07:52:28;4.80;;;1.52;;
40164;SDS011;25882;51.120;17.248;2023-06-04T07:54:54;4.70;;;1.67;;
40164;SDS011;25882;51.120;17.248;2023-06-04T07:57:20;3.95;;;1.70;;
40164;SDS011;25882;51.120;17.248;2023-06-04T07:59:47;4.43;;;1.52;;
40164;SDS011;25882;51.120;17.248;2023-06-04T08:02:13;3.88;;;2.03;;
40164;SDS011;25882;51.120;17.248;2023-06-04T08:04:41;2.88;;;1.60;;
40164;SDS011;25882;51.120;17.248;2023-06-04T08:07:08;4.57;;;2.17;;
40164;SDS011;25882;51.120;17.248;2023-06-04T08:09:34;5.55;;;1.88;;
40164;SDS011;25882;51.120;17.248;2023-06-04T08:12:00;3.63;;;1.85;;
40164;SDS011;25882;51.120;17.248;2023-06-04T08:14:26;5.20;;;1.90;;
40164;SDS011;25882;51.120;17.248;2023-06-04T08:16:52;3.60;;;2.15;;
40164;SDS011;25882;51.120;17.248;2023-06-04T08:19:19;2.60;;;1.33;;
40164;SDS011;25882;51.120;17.248;2023-06-04T08:21:47;2.40;;;1.83;;
40164;SDS011;25882;51.120;17.248;2023-06-04T08:24:14;2.28;;;1.35;;
40164;SDS011;25882;51.120;17.248;2023-06-04T08:26:41;5.10;;;1.80;;
40164;SDS011;25882;51.120;17.248;2023-06-04T08:29:07;3.15;;;1.35;;
40164;SDS011;25882;51.120;17.248;2023-06-04T08:31:33;4.47;;;1.63;;
40164;SDS011;25882;51.120;17.248;2023-06-04T08:34:00;3.05;;;1.30;;
40164;SDS011;25882;51.120;17.248;2023-06-04T08:36:26;2.40;;;1.40;;
40164;SDS011;25882;51.120;17.248;2023-06-04T08:38:57;2.85;;;1.75;;
40164;SDS011;25882;51.120;17.248;2023-06-04T08:41:24;3.00;;;1.55;;
40164;SDS011;25882;51.120;17.248;2023-06-04T08:44:01;3.22;;;1.38;;
40164;SDS011;25882;51.120;17.248;2023-06-04T08:46:34;3.88;;;1.20;;
40164;SDS011;25882;51.120;17.248;2023-06-04T08:49:06;2.92;;;1.52;;
40164;SDS011;25882;51.120;17.248;2023-06-04T08:51:33;2.65;;;1.40;;
40164;SDS011;25882;51.120;17.248;2023-06-04T08:54:04;2.10;;;1.23;;
40164;SDS011;25882;51.120;17.248;2023-06-04T08:56:33;2.90;;;1.45;;
40164;SDS011;25882;51.120;17.248;2023-06-04T08:59:00;2.47;;;1.40;;
40164;SDS011;25882;51.120;17.248;2023-06-04T09:01:27;5.40;;;1.38;;
40164;SDS011;25882;51.120;17.248;2023-06-04T09:03:54;1.70;;;1.38;;
40164;SDS011;25882;51.120;17.248;2023-06-04T09:06:22;4.07;;;1.60;;
40164;SDS011;25882;51.120;17.248;2023-06-04T09:08:50;2.72;;;1.25;;
40164;SDS011;25882;51.120;17.248;2023-06-04T09:11:17;2.63;;;1.23;;
40164;SDS011;25882;51.120;17.248;2023-06-04T09:13:44;5.13;;;1.38;;
40164;SDS011;25882;51.120;17.248;2023-06-04T09:16:20;2.80;;;1.30;;
40164;SDS011;25882;51.120;17.248;2023-06-04T09:18:54;3.22;;;1.27;;
40164;SDS011;25882;51.120;17.248;2023-06-04T09:21:20;1.90;;;1.25;;
40164;SDS011;25882;51.120;17.248;2023-06-04T09:23:47;3.17;;;1.30;;
40164;SDS011;25882;51.120;17.248;2023-06-04T09:26:13;1.52;;;0.95;;
40164;SDS011;25882;51.120;17.248;2023-06-04T09:28:42;2.58;;;1.08;;
40164;SDS011;25882;51.120;17.248;2023-06-04T09:31:09;3.08;;;1.20;;
40164;SDS011;25882;51.120;17.248;2023-06-04T09:33:43;2.65;;;1.35;;
40164;SDS011;25882;51.120;17.248;2023-06-04T09:36:10;2.25;;;1.00;;
40164;SDS011;25882;51.120;17.248;2023-06-04T09:38:37;1.45;;;1.23;;
40164;SDS011;25882;51.120;17.248;2023-06-04T09:41:03;1.98;;;1.25;;
40164;SDS011;25882;51.120;17.248;2023-06-04T09:43:32;1.98;;;1.10;;
40164;SDS011;25882;51.120;17.248;2023-06-04T09:46:09;2.22;;;1.50;;
40164;SDS011;25882;51.120;17.248;2023-06-04T09:48:36;2.50;;;1.40;;
40164;SDS011;25882;51.120;17.248;2023-06-04T09:51:06;2.35;;;1.33;;
40164;SDS011;25882;51.120;17.248;2023-06-04T09:53:33;2.35;;;1.23;;
40164;SDS011;25882;51.120;17.248;2023-06-04T09:55:59;2.25;;;1.38;;
40164;SDS011;25882;51.120;17.248;2023-06-04T09:58:27;1.95;;;1.05;;
40164;SDS011;25882;51.120;17.248;2023-06-04T10:00:54;4.22;;;1.25;;
40164;SDS011;25882;51.120;17.248;2023-06-04T10:03:26;2.45;;;1.30;;
40164;SDS011;25882;51.120;17.248;2023-06-04T10:06:02;3.42;;;1.30;;
40164;SDS011;25882;51.120;17.248;2023-06-04T10:08:30;5.13;;;1.70;;
40164;SDS011;25882;51.120;17.248;2023-06-04T10:10:58;3.45;;;1.23;;
40164;SDS011;25882;51.120;17.248;2023-06-04T10:13:27;3.70;;;1.30;;
40164;SDS011;25882;51.120;17.248;2023-06-04T10:15:56;2.33;;;1.25;;
40164;SDS011;25882;51.120;17.248;2023-06-04T10:18:26;2.72;;;1.25;;
40164;SDS011;25882;51.120;17.248;2023-06-04T10:20:53;1.73;;;1.05;;
40164;SDS011;25882;51.120;17.248;2023-06-04T10:23:21;2.30;;;1.10;;
40164;SDS011;25882;51.120;17.248;2023-06-04T10:25:49;2.97;;;1.10;;
40164;SDS011;25882;51.120;17.248;2023-06-04T10:28:18;2.35;;;1.10;;
40164;SDS011;25882;51.120;17.248;2023-06-04T10:30:47;3.35;;;1.20;;
40164;SDS011;25882;51.120;17.248;2023-06-04T10:33:27;3.35;;;1.23;;
40164;SDS011;25882;51.120;17.248;2023-06-04T10:35:54;3.63;;;1.05;;
40164;SDS011;25882;51.120;17.248;2023-06-04T10:38:21;3.92;;;1.30;;
40164;SDS011;25882;51.120;17.248;2023-06-04T10:40:48;2.03;;;1.13;;
40164;SDS011;25882;51.120;17.248;2023-06-04T10:43:14;3.20;;;0.93;;
40164;SDS011;25882;51.120;17.248;2023-06-04T10:45:44;1.90;;;1.08;;
40164;SDS011;25882;51.120;17.248;2023-06-04T10:48:11;4.38;;;1.33;;
40164;SDS011;25882;51.120;17.248;2023-06-04T10:50:48;2.35;;;1.20;;
40164;SDS011;25882;51.120;17.248;2023-06-04T10:53:17;3.15;;;1.13;;
40164;SDS011;25882;51.120;17.248;2023-06-04T10:55:43;3.42;;;1.05;;
40164;SDS011;25882;51.120;17.248;2023-06-04T10:58:11;3.72;;;1.08;;
40164;SDS011;25882;51.120;17.248;2023-06-04T11:00:38;2.00;;;0.90;;
40164;SDS011;25882;51.120;17.248;2023-06-04T11:03:07;2.75;;;1.45;;
40164;SDS011;25882;51.120;17.248;2023-06-04T11:05:35;3.88;;;0.80;;
40164;SDS011;25882;51.120;17.248;2023-06-04T11:08:04;3.15;;;1.30;;
40164;SDS011;25882;51.120;17.248;2023-06-04T11:10:36;3.85;;;1.17;;
40164;SDS011;25882;51.120;17.248;2023-06-04T11:13:03;2.92;;;1.20;;
40164;SDS011;25882;51.120;17.248;2023-06-04T11:15:37;3.05;;;1.63;;
40164;SDS011;25882;51.120;17.248;2023-06-04T11:18:04;3.17;;;1.08;;
40164;SDS011;25882;51.120;17.248;2023-06-04T11:20:30;2.67;;;1.15;;
40164;SDS011;25882;51.120;17.248;2023-06-04T11:22:58;2.30;;;1.40;;
40164;SDS011;25882;51.120;17.248;2023-06-04T11:25:30;3.10;;;1.00;;
40164;SDS011;25882;51.120;17.248;2023-06-04T11:27:58;4.33;;;1.37;;
40164;SDS011;25882;51.120;17.248;2023-06-04T11:30:27;2.15;;;1.00;;
40164;SDS011;25882;51.120;17.248;2023-06-04T11:33:00;4.55;;;1.30;;
40164;SDS011;25882;51.120;17.248;2023-06-04T11:35:27;1.70;;;0.98;;
40164;SDS011;25882;51.120;17.248;2023-06-04T11:37:54;2.47;;;1.50;;
40164;SDS011;25882;51.120;17.248;2023-06-04T11:40:21;3.60;;;0.88;;
40164;SDS011;25882;51.120;17.248;2023-06-04T11:42:50;3.58;;;1.10;;
40164;SDS011;25882;51.120;17.248;2023-06-04T11:45:17;6.00;;;1.38;;
40164;SDS011;25882;51.120;17.248;2023-06-04T11:47:45;2.85;;;0.85;;
40164;SDS011;25882;51.120;17.248;2023-06-04T11:50:11;3.15;;;1.10;;
40164;SDS011;25882;51.120;17.248;2023-06-04T11:52:40;6.07;;;1.40;;
40164;SDS011;25882;51.120;17.248;2023-06-04T11:55:07;3.60;;;1.35;;
40164;SDS011;25882;51.120;17.248;2023-06-04T11:57:43;4.00;;;1.10;;
40164;SDS011;25882;51.120;17.248;2023-06-04T12:00:11;1.70;;;1.20;;
40164;SDS011;25882;51.120;17.248;2023-06-04T12:02:48;2.42;;;1.50;;
40164;SDS011;25882;51.120;17.248;2023-06-04T12:05:17;3.67;;;1.90;;
40164;SDS011;25882;51.120;17.248;2023-06-04T12:07:49;3.75;;;1.38;;
40164;SDS011;25882;51.120;17.248;2023-06-04T12:10:19;2.50;;;1.40;;
40164;SDS011;25882;51.120;17.248;2023-06-04T12:12:46;2.63;;;1.23;;
40164;SDS011;25882;51.120;17.248;2023-06-04T12:15:22;4.07;;;1.10;;
40164;SDS011;25882;51.120;17.248;2023-06-04T12:17:53;1.85;;;0.90;;
40164;SDS011;25882;51.120;17.248;2023-06-04T12:20:30;2.60;;;1.30;;
40164;SDS011;25882;51.120;17.248;2023-06-04T12:22:58;2.80;;;1.10;;
40164;SDS011;25882;51.120;17.248;2023-06-04T12:25:24;3.75;;;1.33;;
40164;SDS011;25882;51.120;17.248;2023-06-04T12:27:56;2.35;;;1.00;;
40164;SDS011;25882;51.120;17.248;2023-06-04T12:30:38;3.67;;;0.98;;
40164;SDS011;25882;51.120;17.248;2023-06-04T12:33:12;4.35;;;0.80;;
40164;SDS011;25882;51.120;17.248;2023-06-04T12:35:47;3.13;;;1.30;;
40164;SDS011;25882;51.120;17.248;2023-06-04T12:38:14;2.20;;;1.15;;
40164;SDS011;25882;51.120;17.248;2023-06-04T12:40:40;2.58;;;1.42;;
40164;SDS011;25882;51.120;17.248;2023-06-04T12:43:07;2.55;;;1.08;;
40164;SDS011;25882;51.120;17.248;2023-06-04T12:45:34;3.55;;;1.13;;
40164;SDS011;25882;51.120;17.248;2023-06-04T12:48:03;3.42;;;1.27;;
40164;SDS011;25882;51.120;17.248;2023-06-04T12:50:30;2.70;;;0.98;;
40164;SDS011;25882;51.120;17.248;2023-06-04T12:52:56;2.17;;;1.15;;
40164;SDS011;25882;51.120;17.248;2023-06-04T12:55:23;5.10;;;1.23;;
40164;SDS011;25882;51.120;17.248;2023-06-04T12:57:49;3.30;;;1.40;;
40164;SDS011;25882;51.120;17.248;2023-06-04T13:00:15;2.42;;;1.30;;
40164;SDS011;25882;51.120;17.248;2023-06-04T13:02:43;3.55;;;1.00;;
40164;SDS011;25882;51.120;17.248;2023-06-04T13:05:10;2.20;;;1.00;;
40164;SDS011;25882;51.120;17.248;2023-06-04T13:07:37;4.20;;;1.30;;
40164;SDS011;25882;51.120;17.248;2023-06-04T13:10:03;2.90;;;1.33;;
40164;SDS011;25882;51.120;17.248;2023-06-04T13:12:30;5.57;;;1.30;;
40164;SDS011;25882;51.120;17.248;2023-06-04T13:14:57;2.28;;;1.40;;
40164;SDS011;25882;51.120;17.248;2023-06-04T13:17:23;2.55;;;1.20;;
40164;SDS011;25882;51.120;17.248;2023-06-04T13:19:49;4.13;;;1.63;;
40164;SDS011;25882;51.120;17.248;2023-06-04T13:22:17;3.08;;;1.05;;
40164;SDS011;25882;51.120;17.248;2023-06-04T13:24:44;3.78;;;0.82;;
40164;SDS011;25882;51.120;17.248;2023-06-04T13:27:10;4.03;;;1.00;;
40164;SDS011;25882;51.120;17.248;2023-06-04T13:29:37;1.70;;;1.00;;
40164;SDS011;25882;51.120;17.248;2023-06-04T13:32:03;2.72;;;1.15;;
40164;SDS011;25882;51.120;17.248;2023-06-04T13:34:33;2.00;;;1.20;;
40164;SDS011;25882;51.120;17.248;2023-06-04T13:37:03;2.67;;;1.10;;
40164;SDS011;25882;51.120;17.248;2023-06-04T13:39:38;4.25;;;1.33;;
40164;SDS011;25882;51.120;17.248;2023-06-04T13:42:05;5.63;;;0.98;;
40164;SDS011;25882;51.120;17.248;2023-06-04T13:44:31;2.30;;;1.10;;
40164;SDS011;25882;51.120;17.248;2023-06-04T13:46:58;2.50;;;1.02;;
40164;SDS011;25882;51.120;17.248;2023-06-04T13:49:24;1.95;;;1.00;;
40164;SDS011;25882;51.120;17.248;2023-06-04T13:51:53;4.60;;;0.95;;
40164;SDS011;25882;51.120;17.248;2023-06-04T13:54:19;2.53;;;1.02;;
40164;SDS011;25882;51.120;17.248;2023-06-04T13:56:47;2.03;;;1.10;;
40164;SDS011;25882;51.120;17.248;2023-06-04T13:59:14;1.98;;;0.88;;
40164;SDS011;25882;51.120;17.248;2023-06-04T14:01:40;4.20;;;0.93;;
40164;SDS011;25882;51.120;17.248;2023-06-04T14:04:07;4.00;;;1.10;;
40164;SDS011;25882;51.120;17.248;2023-06-04T14:06:34;2.47;;;1.05;;
40164;SDS011;25882;51.120;17.248;2023-06-04T14:09:03;2.55;;;1.00;;
40164;SDS011;25882;51.120;17.248;2023-06-04T14:11:31;1.60;;;1.00;;
40164;SDS011;25882;51.120;17.248;2023-06-04T14:13:59;2.83;;;1.08;;
40164;SDS011;25882;51.120;17.248;2023-06-04T14:16:25;3.92;;;1.38;;
40164;SDS011;25882;51.120;17.248;2023-06-04T14:18:57;4.13;;;1.25;;
40164;SDS011;25882;51.120;17.248;2023-06-04T14:21:24;2.55;;;1.10;;
40164;SDS011;25882;51.120;17.248;2023-06-04T14:23:50;2.67;;;1.45;;
40164;SDS011;25882;51.120;17.248;2023-06-04T14:26:17;3.22;;;1.30;;
40164;SDS011;25882;51.120;17.248;2023-06-04T14:28:46;2.42;;;1.30;;
40164;SDS011;25882;51.120;17.248;2023-06-04T14:31:13;2.42;;;1.10;;
40164;SDS011;25882;51.120;17.248;2023-06-04T14:33:40;1.98;;;1.17;;
40164;SDS011;25882;51.120;17.248;2023-06-04T14:36:07;4.95;;;1.13;;
40164;SDS011;25882;51.120;17.248;2023-06-04T14:38:33;6.65;;;1.00;;
40164;SDS011;25882;51.120;17.248;2023-06-04T14:40:59;3.95;;;1.20;;
40164;SDS011;25882;51.120;17.248;2023-06-04T14:43:25;2.42;;;1.10;;